Time;durP1;ratioP1;P1;durP2;ratioP2;P2;SDS_P1;SDS_P2;PMS_P1;PMS_P2;Temp;Humidity;BMP_temperature;BMP_pressure;BME280_temperature;BME280_humidity;BME280_pressure;Samples;Min_cycle;Max_cycle;Signal;HPM_P1;HPM_P2
2021/12/29 00:02:48;;;;;;;26.15;10.65;;;;;;;1.41;92.10;97150.09;10416518;28;20064;-58
2021/12/29 00:07:47;;;;;;;27.35;10.63;;;;;;;1.30;92.26;97125.97;10416244;28;20048;-58
2021/12/29 00:12:50;;;;;;;32.97;14.02;;;;;;;1.42;92.56;97151.81;10416387;28;20059;-58
2021/12/29 00:17:50;;;;;;;33.00;12.75;;;;;;;1.43;92.39;97145.00;10415095;28;20098;-58
2021/12/29 00:22:49;;;;;;;29.48;10.63;;;;;;;1.33;92.33;97121.78;10415125;28;20486;-58
2021/12/29 00:27:48;;;;;;;39.20;13.32;;;;;;;1.45;92.55;97128.88;10415175;28;20079;-58
2021/12/29 00:32:47;;;;;;;34.63;14.10;;;;;;;1.55;92.27;97142.75;10414456;28;20060;-60
2021/12/29 00:37:46;;;;;;;;;;;;;;;1.49;92.46;97132.41;10414729;28;20067;-58
2021/12/29 00:42:45;;;;;;;32.40;10.98;;;;;;;1.52;92.32;97132.47;10415739;28;19916;-58
2021/12/29 00:47:44;;;;;;;41.38;17.00;;;;;;;1.49;92.51;97117.91;10414824;28;20562;-58
2021/12/29 00:52:45;;;;;;;55.42;19.10;;;;;;;1.57;92.78;97118.09;10411635;28;20597;-59
2021/12/29 00:57:45;;;;;;;54.22;22.98;;;;;;;1.46;92.89;97130.63;10406918;28;20124;-58
2021/12/29 01:02:45;;;;;;;51.30;15.90;;;;;;;1.47;92.79;97124.69;10411965;28;20052;-58
2021/12/29 01:07:44;;;;;;;57.60;18.40;;;;;;;1.43;92.78;97130.53;10411482;28;20048;-58
2021/12/29 01:12:56;;;;;;;;;;;;;;;1.48;92.47;97135.75;10412726;28;20131;-58
2021/12/29 01:17:58;;;;;;;40.28;13.43;;;;;;;1.45;92.78;97131.44;10411702;28;19948;-58
2021/12/29 01:22:59;;;;;;;44.10;14.32;;;;;;;1.05;92.83;97086.13;10413076;28;20051;-58
2021/12/29 01:27:58;;;;;;;44.65;14.52;;;;;;;1.13;93.27;97104.22;10412177;28;20070;-58
2021/12/29 01:32:57;;;;;;;51.95;18.48;;;;;;;1.29;93.21;97120.00;10419003;28;20028;-58
2021/12/29 01:37:56;;;;;;;63.92;18.70;;;;;;;1.22;93.32;97110.41;10420953;28;20056;-58
2021/12/29 01:42:55;;;;;;;67.97;15.68;;;;;;;1.06;93.84;97101.53;10420958;28;20127;-58
2021/12/29 01:47:54;;;;;;;;;;;;;;;0.93;94.22;97114.78;10422009;28;20087;-58
2021/12/29 01:52:56;;;;;;;43.03;16.55;;;;;;;0.92;94.30;97110.53;10420566;28;19950;-58
2021/12/29 01:57:55;;;;;;;45.47;16.70;;;;;;;0.97;94.43;97105.53;10420075;28;20107;-58
2021/12/29 02:02:54;;;;;;;37.95;12.88;;;;;;;0.90;94.50;97095.16;10420637;28;20059;-58
2021/12/29 02:07:53;;;;;;;37.55;15.32;;;;;;;0.89;94.71;97093.41;10420454;28;20143;-58
2021/12/29 02:12:53;;;;;;;35.30;13.60;;;;;;;1.10;94.19;97082.00;10419358;28;20048;-58
2021/12/29 02:17:52;;;;;;;;;;;;;;;1.17;93.95;97073.66;10420534;28;20056;-58
2021/12/29 02:23:01;;;;;;;30.55;10.70;;;;;;;1.27;93.86;97059.41;10419049;28;19931;-57
2021/12/29 02:28:02;;;;;;;40.38;13.27;;;;;;;1.29;93.58;97057.75;10418733;28;20068;-58
2021/12/29 02:33:03;;;;;;;33.60;13.45;;;;;;;1.40;93.39;97046.09;10419206;28;20503;-57
2021/12/29 02:38:03;;;;;;;33.03;14.43;;;;;;;1.53;93.67;97031.94;10418604;28;20075;-57
2021/12/29 02:43:03;;;;;;;35.15;14.35;;;;;;;1.57;93.24;97002.16;10418121;28;20063;-57
2021/12/29 02:48:02;;;;;;;42.75;16.08;;;;;;;1.71;93.46;97014.41;10418889;28;20495;-57
2021/12/29 02:53:01;;;;;;;;;;;;;;;1.79;93.24;97003.50;10418844;28;20571;-57
2021/12/29 02:58:00;;;;;;;30.30;11.10;;;;;;;1.86;93.34;96998.53;10417628;28;19917;-57
2021/12/29 03:02:59;;;;;;;29.75;11.65;;;;;;;1.67;93.29;97004.97;10418192;28;20067;-57
2021/12/29 03:07:59;;;;;;;29.65;11.30;;;;;;;1.49;93.54;97005.41;10417065;28;20039;-58
2021/12/29 03:12:58;;;;;;;33.67;11.88;;;;;;;1.52;93.26;96990.13;10416910;28;20448;-57
2021/12/29 03:17:57;;;;;;;32.28;12.65;;;;;;;1.65;93.51;97005.75;10416512;28;20083;-57
2021/12/29 03:22:57;;;;;;;35.83;18.58;;;;;;;1.62;93.54;97004.00;10416770;28;20028;-57
2021/12/29 03:27:58;;;;;;;39.53;17.88;;;;;;;1.50;93.44;97012.25;10415933;28;20170;-57
2021/12/29 03:33:03;;;;;;;55.45;31.00;;;;;;;1.48;93.59;97019.03;10415205;28;20140;-57
2021/12/29 03:38:05;;;;;;;45.95;15.25;;;;;;;1.43;93.75;97015.50;10416271;28;20124;-57
2021/12/29 03:43:06;;;;;;;44.28;23.42;;;;;;;1.40;93.64;97012.03;10416391;28;20805;-57
2021/12/29 03:48:06;;;;;;;39.55;12.20;;;;;;;1.48;93.54;97000.25;10415945;28;20052;-57
2021/12/29 03:53:05;;;;;;;34.00;12.63;;;;;;;1.42;93.65;97007.81;10415115;28;20062;-57
2021/12/29 03:58:04;;;;;;;38.58;12.30;;;;;;;1.29;93.54;96981.97;10415346;28;20112;-57
2021/12/29 04:03:04;;;;;;;61.42;20.70;;;;;;;1.33;93.64;96991.41;10415873;28;20056;-57
2021/12/29 04:08:04;;;;;;;63.78;22.27;;;;;;;1.09;93.94;96994.28;10415381;28;20757;-58
2021/12/29 04:13:03;;;;;;;49.20;15.30;;;;;;;1.11;93.99;96991.78;10415155;28;20052;-57
2021/12/29 04:18:14;;;;;;;39.58;14.15;;;;;;;1.30;93.63;96988.81;10415261;28;20052;-57
2021/12/29 04:23:14;;;;;;;46.30;12.43;;;;;;;1.35;93.50;96986.34;10414820;28;20072;-57
2021/12/29 04:28:20;;;;;;;;;;;;;;;1.17;93.53;96994.44;10417136;28;20076;-57
2021/12/29 04:33:19;;;;;;;50.30;17.55;;;;;;;0.89;94.28;97006.56;10416063;28;19963;-57
2021/12/29 04:38:21;;;;;;;36.75;13.40;;;;;;;0.80;95.06;97005.47;10416865;28;20059;-57
2021/12/29 04:43:21;;;;;;;38.53;13.85;;;;;;;0.76;95.05;97012.19;10416544;28;20067;-57
2021/12/29 04:48:23;;;;;;;39.28;16.85;;;;;;;0.85;94.74;97026.88;10416299;28;20055;-59
2021/12/29 04:53:23;;;;;;;36.67;12.80;;;;;;;0.94;94.66;97028.78;10416677;28;20071;-59
2021/12/29 04:58:23;;;;;;;38.80;16.13;;;;;;;1.02;94.42;97023.06;10415716;28;20056;-57
2021/12/29 05:03:21;;;;;;;;;;;;;;;0.97;94.48;97021.22;10415559;28;20475;-57
2021/12/29 05:08:25;;;;;;;34.60;18.77;;;;;;;0.99;94.10;97033.22;10416065;28;19908;-58
2021/12/29 05:13:25;;;;;;;25.38;13.55;;;;;;;1.03;94.24;97032.44;10415451;28;20075;-58
2021/12/29 05:18:26;;;;;;;23.60;11.10;;;;;;;0.96;94.42;97037.38;10414794;28;20538;-57
2021/12/29 05:23:25;;;;;;;34.80;16.83;;;;;;;0.96;94.10;97045.03;10416051;28;20052;-57
2021/12/29 05:28:24;;;;;;;23.23;10.48;;;;;;;0.70;94.31;97022.25;10415469;28;20079;-57
2021/12/29 05:33:23;;;;;;;24.90;12.00;;;;;;;0.77;94.32;97036.03;10415085;28;20071;-57
2021/12/29 05:38:23;;;;;;;23.15;10.00;;;;;;;0.61;94.41;97038.19;10415453;28;20028;-57
2021/12/29 05:43:22;;;;;;;19.10;9.75;;;;;;;0.65;94.34;97044.25;10415359;28;20063;-57
2021/12/29 05:48:21;;;;;;;22.60;10.27;;;;;;;0.64;94.34;97050.19;10415069;28;20064;-57
2021/12/29 05:53:20;;;;;;;23.80;11.35;;;;;;;0.68;94.05;97050.28;10407131;28;20034;-57
2021/12/29 05:58:19;;;;;;;29.95;12.07;;;;;;;0.66;94.11;97063.84;10411925;28;20028;-57
2021/12/29 06:03:19;;;;;;;24.75;13.07;;;;;;;0.68;94.02;97064.75;10414287;28;20056;-57
2021/12/29 06:08:18;;;;;;;27.27;11.50;;;;;;;0.80;93.97;97056.53;10412843;28;20051;-57
2021/12/29 06:13:17;;;;;;;22.95;9.45;;;;;;;0.92;93.81;97059.44;10412158;28;20075;-57
2021/12/29 06:18:16;;;;;;;22.85;10.90;;;;;;;0.98;93.51;97048.50;10416405;28;20033;-57
2021/12/29 06:23:15;;;;;;;25.27;13.38;;;;;;;0.83;93.14;97020.88;10420539;28;20024;-58
2021/12/29 06:28:15;;;;;;;32.17;17.65;;;;;;;1.07;93.21;97049.59;10416783;28;20114;-58
2021/12/29 06:33:14;;;;;;;26.75;12.10;;;;;;;1.07;93.19;97043.63;10420869;28;20855;-58
2021/12/29 06:38:12;;;;;;;40.97;18.63;;;;;;;1.07;93.20;97051.28;10419465;28;20044;-59
2021/12/29 06:43:11;;;;;;;44.47;20.35;;;;;;;1.11;93.65;97053.94;10421375;28;20028;-59
2021/12/29 06:48:10;;;;;;;42.95;19.48;;;;;;;1.10;93.47;97046.22;10420853;28;20504;-59
2021/12/29 06:53:10;;;;;;;53.67;20.63;;;;;;;1.13;93.78;97059.09;10420334;28;20486;-59
2021/12/29 06:58:12;;;;;;;62.80;23.70;;;;;;;1.18;93.55;97061.75;10396171;28;20064;-59
2021/12/29 07:03:11;;;;;;;138.10;44.58;;;;;;;1.19;93.51;97061.78;10419975;28;20060;-59
2021/12/29 07:08:10;;;;;;;63.67;19.30;;;;;;;1.10;93.81;97064.97;10419663;28;20024;-59
2021/12/29 07:13:09;;;;;;;59.97;23.35;;;;;;;0.89;93.88;97021.88;10415505;28;20119;-59
2021/12/29 07:18:08;;;;;;;42.80;19.23;;;;;;;1.21;93.65;97070.38;10416319;28;20103;-59
2021/12/29 07:23:07;;;;;;;34.90;15.63;;;;;;;1.27;93.65;97072.19;10416823;28;20136;-59
2021/12/29 07:28:06;;;;;;;96.88;46.92;;;;;;;1.23;93.79;97084.06;10414542;28;20417;-59
2021/12/29 07:33:05;;;;;;;27.88;13.00;;;;;;;1.15;93.95;97079.56;10409401;28;20080;-59
2021/12/29 07:38:04;;;;;;;43.63;20.48;;;;;;;1.05;94.16;97098.91;10393745;28;20090;-59
2021/12/29 07:43:04;;;;;;;44.50;22.17;;;;;;;1.17;93.89;97099.22;10417061;28;20032;-59
2021/12/29 07:48:04;;;;;;;51.47;25.10;;;;;;;1.29;93.72;97099.56;10410690;28;20052;-59
2021/12/29 07:53:05;;;;;;;53.90;25.08;;;;;;;1.24;93.77;97105.34;10417449;28;20066;-59
2021/12/29 07:58:04;;;;;;;61.38;32.40;;;;;;;1.13;93.69;97100.00;10417399;28;20068;-59
2021/12/29 08:03:03;;;;;;;40.88;21.83;;;;;;;1.14;93.86;97104.25;10418220;28;20498;-59
2021/12/29 08:08:05;;;;;;;38.58;20.50;;;;;;;1.20;93.70;97089.09;10417209;28;20063;-59
2021/12/29 08:13:06;;;;;;;22.25;11.18;;;;;;;1.20;93.84;97101.88;10379727;28;20076;-59
2021/12/29 08:18:06;;;;;;;23.58;12.30;;;;;;;1.14;93.70;97077.84;10410876;28;20629;-59
2021/12/29 08:23:06;;;;;;;22.75;10.63;;;;;;;1.36;93.53;97095.41;10415279;28;20440;-59
2021/12/29 08:28:06;;;;;;;35.33;17.33;;;;;;;1.40;93.71;97087.00;10413033;28;20079;-59
2021/12/29 08:33:05;;;;;;;32.00;18.05;;;;;;;1.48;93.66;97082.06;10413601;28;20523;-58
2021/12/29 08:38:04;;;;;;;41.47;23.02;;;;;;;1.48;93.54;97074.41;10410891;28;20107;-59
2021/12/29 08:43:03;;;;;;;29.25;16.20;;;;;;;1.52;93.40;97065.97;10414683;28;20063;-59
2021/12/29 08:48:05;;;;;;;49.15;28.15;;;;;;;1.64;93.17;97076.47;10415061;28;20040;-59
2021/12/29 08:53:08;;;;;;;28.27;15.95;;;;;;;1.75;92.84;97072.47;10414522;28;20056;-59
2021/12/29 08:58:07;;;;;;;22.20;11.77;;;;;;;1.71;92.83;97060.44;10414815;28;20056;-59
2021/12/29 09:03:06;;;;;;;20.65;10.15;;;;;;;1.70;92.66;97056.16;10391206;28;20483;-59
2021/12/29 09:08:05;;;;;;;16.35;8.52;;;;;;;1.82;92.41;97052.16;10414331;28;20261;-59
2021/12/29 09:13:04;;;;;;;40.00;22.20;;;;;;;1.81;92.41;97055.53;10411822;28;20056;-58
2021/12/29 09:18:03;;;;;;;26.50;14.75;;;;;;;1.80;92.48;97039.34;10414601;28;20530;-58
2021/12/29 09:23:07;;;;;;;28.23;15.82;;;;;;;1.58;92.08;97030.34;10413493;28;20495;-58
2021/12/29 09:28:08;;;;;;;34.47;23.40;;;;;;;1.63;92.81;97033.84;10412277;28;20068;-59
2021/12/29 09:33:07;;;;;;;30.92;18.10;;;;;;;1.72;92.64;97022.97;10414655;28;20090;-58
2021/12/29 09:38:08;;;;;;;33.28;20.08;;;;;;;1.87;92.88;97018.16;10412619;28;20067;-58
2021/12/29 09:43:07;;;;;;;34.58;20.20;;;;;;;1.86;92.27;96997.69;10411925;28;20525;-58
2021/12/29 09:48:07;;;;;;;38.85;19.90;;;;;;;1.93;92.16;97018.31;10411111;28;20079;-58
2021/12/29 09:53:07;;;;;;;;;;;;;;;1.98;92.59;97008.16;10418338;28;20067;-58
2021/12/29 09:58:07;;;;;;;19.00;10.52;;;;;;;2.08;92.86;97004.94;10422512;28;19968;-58
2021/12/29 10:03:09;;;;;;;20.10;9.98;;;;;;;2.15;92.08;96996.56;10422246;28;20063;-58
2021/12/29 10:08:18;;;;;;;16.88;10.30;;;;;;;2.21;92.41;96982.16;10422202;28;20060;-58
2021/12/29 10:13:18;;;;;;;16.52;9.90;;;;;;;2.33;91.94;96977.28;10421965;28;20452;-58
2021/12/29 10:18:23;;;;;;;14.88;8.38;;;;;;;2.45;91.81;96977.50;10422221;28;20067;-58
2021/12/29 10:23:26;;;;;;;20.92;13.88;;;;;;;2.52;91.74;96974.22;10422076;28;20056;-58
2021/12/29 10:28:28;;;;;;;19.42;11.73;;;;;;;2.58;91.36;96963.19;10421181;28;20459;-58
2021/12/29 10:33:56;;;;;;;22.10;13.48;;;;;;;2.52;90.79;96969.09;10393947;28;20083;-58
2021/12/29 10:39:04;;;;;;;22.08;13.68;;;;;;;2.58;91.06;96964.09;10415406;28;20560;-58
2021/12/29 10:44:04;;;;;;;22.70;15.23;;;;;;;2.67;91.16;96954.81;10408485;28;20110;-59
2021/12/29 10:49:07;;;;;;;23.45;16.55;;;;;;;2.71;90.50;96936.97;10379511;28;20096;-58
2021/12/29 10:54:19;;;;;;;15.27;9.30;;;;;;;2.70;89.90;96952.31;10379661;28;20069;-58
2021/12/29 10:59:25;;;;;;;17.33;10.07;;;;;;;2.51;89.73;96961.38;10376739;28;20076;-58
2021/12/29 11:04:26;;;;;;;23.02;14.13;;;;;;;2.40;90.24;96953.53;10404676;28;20072;-58
2021/12/29 11:09:32;;;;;;;19.52;11.40;;;;;;;2.31;89.73;96958.47;10415969;28;20483;-58
2021/12/29 11:14:33;;;;;;;27.77;17.75;;;;;;;2.34;89.64;96954.25;10415490;28;20205;-58
2021/12/29 11:19:32;;;;;;;19.75;12.40;;;;;;;2.37;89.43;96959.44;10416510;28;20060;-58
2021/12/29 11:24:31;;;;;;;22.40;12.43;;;;;;;2.27;89.58;96949.00;10415926;28;20079;-58
2021/12/29 11:29:30;;;;;;;34.85;22.55;;;;;;;2.40;90.10;96955.22;10416818;28;20043;-58
2021/12/29 11:34:30;;;;;;;27.90;19.23;;;;;;;2.59;90.09;96950.44;10416773;28;20131;-58
2021/12/29 11:39:32;;;;;;;27.00;17.38;;;;;;;2.73;89.95;96954.94;10416169;28;20075;-58
2021/12/29 11:44:31;;;;;;;15.13;9.57;;;;;;;2.73;89.23;96953.25;10417191;28;20068;-58
2021/12/29 11:49:30;;;;;;;;;;;;;;;2.46;88.89;96955.31;10401622;28;20087;-58
2021/12/29 11:54:50;;;;;;;23.55;15.73;;;;;;;2.34;89.23;96956.81;10423775;28;19944;-57
2021/12/29 11:59:49;;;;;;;27.10;17.75;;;;;;;2.33;89.46;96949.13;10418081;28;20174;-57
2021/12/29 12:05:04;;;;;;;14.70;10.35;;;;;;;2.28;89.50;96961.84;10417661;28;20511;-57
2021/12/29 12:10:09;;;;;;;20.35;12.20;;;;;;;2.06;89.50;96955.44;10417246;28;20093;-57
2021/12/29 12:15:10;;;;;;;19.85;12.57;;;;;;;2.16;89.81;96962.47;10414924;28;20060;-58
2021/12/29 12:20:14;;;;;;;19.45;12.45;;;;;;;1.96;89.43;96967.19;10414404;28;20079;-57
2021/12/29 12:25:18;;;;;;;17.02;10.38;;;;;;;1.80;89.87;96969.41;10416166;28;20130;-57
2021/12/29 12:30:26;;;;;;;26.10;15.20;;;;;;;1.73;89.66;96964.16;10415018;28;20072;-57
2021/12/29 12:35:30;;;;;;;17.77;10.70;;;;;;;1.81;89.98;96964.34;10408796;28;20067;-57
2021/12/29 12:40:31;;;;;;;19.05;10.20;;;;;;;1.85;89.66;96976.34;10415748;28;20060;-57
2021/12/29 12:45:34;;;;;;;25.80;16.15;;;;;;;1.77;90.08;96974.47;10416279;28;20052;-57
2021/12/29 12:50:34;;;;;;;23.52;16.15;;;;;;;1.60;90.08;96980.09;10411752;28;20064;-57
2021/12/29 12:55:48;;;;;;;23.50;15.05;;;;;;;1.63;90.43;96982.72;10412052;28;20076;-58
2021/12/29 13:00:50;;;;;;;23.08;14.93;;;;;;;1.71;90.34;96986.28;10415967;28;20071;-57
2021/12/29 13:05:57;;;;;;;28.90;16.35;;;;;;;1.79;90.25;96989.03;10401468;28;20059;-57
2021/12/29 13:11:04;;;;;;;29.25;17.75;;;;;;;1.70;90.28;97001.59;10414488;28;20090;-57
2021/12/29 13:16:07;;;;;;;33.92;19.85;;;;;;;1.70;90.26;96999.91;10375138;28;20076;-57
2021/12/29 13:21:21;;;;;;;31.05;18.77;;;;;;;1.56;90.21;96967.22;10388054;28;20064;-57
2021/12/29 13:26:20;;;;;;;28.95;17.00;;;;;;;1.61;90.20;97007.38;10390867;28;20077;-57
2021/12/29 13:31:21;;;;;;;29.75;18.65;;;;;;;1.35;90.14;96990.59;10397178;28;20094;-59
2021/12/29 13:36:22;;;;;;;32.75;19.50;;;;;;;1.33;90.21;97001.63;10426874;28;20067;-57
2021/12/29 13:41:29;;;;;;;36.72;21.85;;;;;;;1.49;90.25;97015.63;10428464;28;20078;-57
2021/12/29 13:46:37;;;;;;;24.92;15.15;;;;;;;1.35;90.28;97021.28;10428270;28;20515;-57
2021/12/29 13:51:42;;;;;;;26.10;16.30;;;;;;;1.29;90.80;97027.97;10428356;28;20158;-57
2021/12/29 13:56:45;;;;;;;26.20;16.58;;;;;;;1.30;90.81;97034.81;10427785;28;20068;-57
2021/12/29 14:01:48;;;;;;;32.25;18.67;;;;;;;1.20;91.02;97025.22;10422838;28;20068;-57
2021/12/29 14:06:53;;;;;;;32.22;17.92;;;;;;;1.22;90.87;97023.53;10424430;28;20068;-57
2021/12/29 14:11:52;;;;;;;38.80;21.75;;;;;;;1.33;90.49;97039.97;10427327;28;20064;-57
2021/12/29 14:16:53;;;;;;;36.70;20.38;;;;;;;1.31;90.84;97035.66;10428121;28;20434;-58
2021/12/29 14:21:54;;;;;;;42.45;25.30;;;;;;;1.28;90.87;97036.47;10428997;28;20087;-57
2021/12/29 14:26:55;;;;;;;57.70;32.80;;;;;;;1.30;90.59;97045.03;10426329;28;20150;-58
2021/12/29 14:31:55;;;;;;;43.95;24.63;;;;;;;1.27;90.85;97047.53;10425599;28;20076;-58
2021/12/29 14:36:55;;;;;;;40.72;20.42;;;;;;;1.22;90.90;97049.06;10425926;28;20535;-58
2021/12/29 14:42:11;;;;;;;36.20;17.83;;;;;;;1.20;91.19;97042.22;10419806;28;20083;-61
2021/12/29 14:47:10;;;;;;;39.10;22.80;;;;;;;0.95;91.30;96995.63;10421256;28;20474;-58
2021/12/29 14:52:12;;;;;;;38.08;18.48;;;;;;;1.07;91.80;97046.16;10421129;28;20079;-57
2021/12/29 14:57:17;;;;;;;43.50;21.48;;;;;;;1.03;92.08;97052.88;10420981;28;20072;-57
2021/12/29 15:02:21;;;;;;;47.35;24.35;;;;;;;1.04;92.08;97054.63;10420227;28;20617;-57
2021/12/29 15:07:21;;;;;;;41.95;21.83;;;;;;;1.13;92.04;97058.22;10413347;28;20075;-58
2021/12/29 15:12:20;;;;;;;47.35;25.10;;;;;;;1.15;91.64;97039.53;10416375;28;20060;-58
2021/12/29 15:17:19;;;;;;;;;;;;;;;1.21;91.69;97049.91;10417410;28;20071;-58
2021/12/29 15:22:18;;;;;;;50.05;30.40;;;;;;;1.25;91.85;97049.19;10418626;28;19954;-58
2021/12/29 15:27:17;;;;;;;60.83;34.90;;;;;;;1.29;91.64;97047.53;10418354;28;20070;-57
2021/12/29 15:32:17;;;;;;;63.13;33.08;;;;;;;1.19;91.82;97051.56;10418045;28;20631;-57
2021/12/29 15:37:15;;;;;;;41.15;24.05;;;;;;;1.10;91.70;97052.19;10417952;28;20060;-56
2021/12/29 15:42:15;;;;;;;44.88;26.92;;;;;;;1.08;91.81;97053.88;10416424;28;20035;-57
2021/12/29 15:47:14;;;;;;;;;;;;;;;1.08;92.17;97055.53;10417917;28;20067;-57
2021/12/29 15:52:13;;;;;;;22.10;11.70;;;;;;;1.01;91.71;97058.78;10416845;28;19908;-57
2021/12/29 15:57:12;;;;;;;43.85;21.83;;;;;;;0.88;92.32;97053.38;10417997;28;20116;-58
2021/12/29 16:02:11;;;;;;;70.70;34.67;;;;;;;1.04;92.18;97056.31;10418281;28;20079;-57
2021/12/29 16:07:10;;;;;;;;;;;;;;;1.13;92.21;97050.56;10418149;28;20064;-58
2021/12/29 16:12:09;;;;;;;33.95;19.48;;;;;;;1.16;91.97;97059.16;10418017;28;19935;-58
2021/12/29 16:17:09;;;;;;;29.58;18.33;;;;;;;0.97;92.20;97039.13;10417790;28;20032;-58
2021/12/29 16:22:08;;;;;;;44.50;30.98;;;;;;;1.12;91.98;97054.81;10417066;28;20514;-58
2021/12/29 16:27:07;;;;;;;41.50;26.23;;;;;;;1.25;91.85;97064.50;10414272;28;20044;-58
2021/12/29 16:32:06;;;;;;;50.35;29.88;;;;;;;1.17;92.03;97067.69;10412796;28;20076;-58
2021/12/29 16:37:05;;;;;;;36.50;21.58;;;;;;;1.08;92.09;97073.44;10416455;28;20060;-58
2021/12/29 16:42:04;;;;;;;50.72;32.25;;;;;;;1.06;92.22;97078.53;10416108;28;20035;-58
2021/12/29 16:47:04;;;;;;;;;;;;;;;1.05;92.45;97083.59;10416807;28;20059;-58
2021/12/29 16:52:04;;;;;;;56.10;32.42;;;;;;;1.06;92.49;97085.31;10416311;28;20434;-58
2021/12/29 16:57:05;;;;;;;67.28;37.22;;;;;;;1.16;92.44;97100.06;10416282;28;20075;-58
2021/12/29 17:02:04;;;;;;;176.68;91.47;;;;;;;0.99;92.84;97098.75;10415437;28;20452;-58
2021/12/29 17:07:03;;;;;;;;;;;;;;;0.94;92.88;97102.88;10416010;28;20060;-58
2021/12/29 17:12:03;;;;;;;52.83;24.98;;;;;;;1.01;92.86;97112.44;10415180;28;19963;-58
2021/12/29 17:17:02;;;;;;;;;;;;;;;1.01;92.79;97108.19;10416423;28;20070;-58
2021/12/29 17:22:00;;;;;;;57.00;31.88;;;;;;;1.05;93.07;97114.25;10415663;28;19912;-58
2021/12/29 17:27:01;;;;;;;34.05;19.65;;;;;;;1.10;92.83;97122.88;10411063;28;20036;-58
2021/12/29 17:32:00;;;;;;;37.20;21.98;;;;;;;1.10;92.59;97120.34;10414738;28;20080;-58
2021/12/29 17:37:00;;;;;;;27.20;16.92;;;;;;;1.07;92.73;97122.81;10414140;28;20068;-58
2021/12/29 17:41:59;;;;;;;59.13;35.55;;;;;;;1.02;93.03;97121.84;10412669;28;20467;-58
2021/12/29 17:46:58;;;;;;;;;;;;;;;1.08;92.76;97119.44;10415889;28;20114;-58
2021/12/29 17:51:58;;;;;;;36.05;21.50;;;;;;;1.10;92.52;97122.88;10414374;28;19916;-58
2021/12/29 17:56:58;;;;;;;40.20;21.63;;;;;;;1.16;92.87;97128.16;10413983;28;20072;-58
2021/12/29 18:01:57;;;;;;;48.38;29.42;;;;;;;1.25;92.75;97125.84;10414553;28;20075;-58
2021/12/29 18:06:55;;;;;;;50.42;30.30;;;;;;;1.30;92.53;97116.59;10414454;28;20135;-58
2021/12/29 18:11:55;;;;;;;46.60;28.63;;;;;;;1.38;92.66;97116.78;10414290;28;20103;-58
2021/12/29 18:16:56;;;;;;;53.63;31.98;;;;;;;1.45;92.39;97120.34;10422092;28;20087;-58
2021/12/29 18:21:55;;;;;;;52.08;32.58;;;;;;;1.52;92.07;97115.41;10421413;28;20060;-58
2021/12/29 18:26:54;;;;;;;31.27;18.38;;;;;;;1.37;92.16;97096.31;10418371;28;20036;-58
2021/12/29 18:31:53;;;;;;;37.95;23.67;;;;;;;1.45;92.24;97115.25;10419106;28;20145;-57
2021/12/29 18:36:52;;;;;;;27.58;16.30;;;;;;;1.42;92.20;97118.59;10421641;28;20028;-58
2021/12/29 18:41:51;;;;;;;;;;;;;;;1.49;92.27;97123.03;10420016;28;20076;-58
2021/12/29 18:46:50;;;;;;;62.15;36.65;;;;;;;1.48;92.03;97130.66;10415442;28;19927;-58
2021/12/29 18:51:49;;;;;;;62.42;36.22;;;;;;;1.45;91.84;97123.78;10420615;28;20025;-58
2021/12/29 18:56:49;;;;;;;58.28;34.75;;;;;;;1.46;91.90;97140.00;10413805;28;20180;-58
2021/12/29 19:01:48;;;;;;;45.70;28.30;;;;;;;1.38;92.23;97138.94;10420022;28;20103;-58
2021/12/29 19:06:48;;;;;;;23.67;13.43;;;;;;;1.35;92.02;97149.09;10420040;28;20064;-58
2021/12/29 19:11:50;;;;;;;72.38;39.47;;;;;;;1.27;92.10;97136.09;10419315;28;20166;-58
2021/12/29 19:16:50;;;;;;;18.80;9.55;;;;;;;1.27;92.04;97159.09;10419920;28;20079;-58
2021/12/29 19:21:50;;;;;;;;;;;;;;;1.18;92.39;97164.84;10419520;28;20067;-58
2021/12/29 19:26:49;;;;;;;33.08;20.92;;;;;;;0.74;92.52;97087.91;10413415;28;19947;-58
2021/12/29 19:31:55;;;;;;;36.13;21.70;;;;;;;1.23;92.53;97149.63;10416849;28;20080;-58
2021/12/29 19:37:03;;;;;;;37.08;23.35;;;;;;;1.28;92.42;97165.94;10417018;28;20475;-58
2021/12/29 19:42:06;;;;;;;47.80;31.13;;;;;;;1.27;92.56;97161.66;10417809;28;20068;-58
2021/12/29 19:47:05;;;;;;;39.22;26.90;;;;;;;1.31;92.02;97172.00;10418124;28;20068;-58
2021/12/29 19:52:04;;;;;;;;;;;;;;;1.28;91.79;97171.06;10419103;28;20068;-58
2021/12/29 19:57:03;;;;;;;44.88;28.60;;;;;;;1.20;92.25;97175.97;10417473;28;20318;-58
2021/12/29 20:02:03;;;;;;;27.13;16.70;;;;;;;1.28;92.27;97187.25;10418355;28;20080;-58
2021/12/29 20:07:04;;;;;;;20.63;12.15;;;;;;;1.37;92.21;97180.66;10417998;28;20064;-58
2021/12/29 20:12:04;;;;;;;19.48;10.82;;;;;;;1.39;92.48;97189.22;10417300;28;20060;-58
2021/12/29 20:17:04;;;;;;;19.63;10.10;;;;;;;1.46;92.46;97178.34;10417627;28;20085;-58
2021/12/29 20:22:04;;;;;;;28.50;16.65;;;;;;;1.46;92.16;97183.47;10416907;28;20080;-58
2021/12/29 20:27:04;;;;;;;20.42;11.57;;;;;;;1.48;91.93;97181.78;10416235;28;20067;-58
2021/12/29 20:32:04;;;;;;;18.90;10.85;;;;;;;1.52;92.07;97188.72;10416100;28;20076;-58
2021/12/29 20:37:04;;;;;;;19.13;9.50;;;;;;;1.47;92.04;97195.41;10416479;28;20071;-58
2021/12/29 20:42:04;;;;;;;19.42;11.90;;;;;;;1.37;91.65;97206.22;10415655;28;20087;-58
2021/12/29 20:47:03;;;;;;;;;;;;;;;1.18;91.91;97200.63;10415605;28;20082;-58
2021/12/29 20:52:04;;;;;;;19.83;11.55;;;;;;;1.16;91.82;97199.72;10415596;28;19912;-58
2021/12/29 20:57:06;;;;;;;24.38;13.93;;;;;;;1.23;92.13;97206.72;10412637;28;20067;-58
2021/12/29 21:02:06;;;;;;;19.83;12.55;;;;;;;1.31;91.83;97210.34;10398282;28;20147;-57
2021/12/29 21:07:05;;;;;;;23.05;15.60;;;;;;;1.38;91.60;97215.63;10396440;28;20069;-58
2021/12/29 21:12:04;;;;;;;18.17;12.32;;;;;;;1.30;91.52;97203.50;10396037;28;20029;-57
2021/12/29 21:17:03;;;;;;;20.08;14.77;;;;;;;1.26;91.95;97222.13;10412809;28;20099;-57
2021/12/29 21:22:04;;;;;;;12.90;8.68;;;;;;;1.22;91.69;97210.09;10412743;28;20839;-57
2021/12/29 21:27:03;;;;;;;13.88;7.88;;;;;;;1.38;91.60;97231.81;10412247;28;20079;-57
2021/12/29 21:32:02;;;;;;;10.65;6.47;;;;;;;1.38;91.76;97225.84;10409489;28;20120;-57
2021/12/29 21:37:02;;;;;;;10.98;6.55;;;;;;;1.32;91.51;97214.63;10393308;28;20075;-57
2021/12/29 21:42:01;;;;;;;;;;;;;;;1.37;91.52;97235.22;10374686;28;20064;-57
2021/12/29 21:46:59;;;;;;;11.30;6.55;;;;;;;1.35;91.14;97234.31;10411742;28;19974;-57
2021/12/29 21:51:58;;;;;;;12.60;6.72;;;;;;;1.39;91.36;97235.22;10421151;28;20028;-57
2021/12/29 21:56:58;;;;;;;11.85;5.88;;;;;;;1.40;91.54;97225.06;10420271;28;20037;-57
2021/12/29 22:01:57;;;;;;;12.90;7.10;;;;;;;1.46;91.25;97232.03;10419839;28;20816;-57
2021/12/29 22:06:56;;;;;;;12.20;7.20;;;;;;;1.50;91.48;97228.72;10420661;28;20440;-57
2021/12/29 22:11:55;;;;;;;15.63;8.38;;;;;;;1.52;91.32;97229.63;10420185;28;20055;-57
2021/12/29 22:16:54;;;;;;;14.93;7.78;;;;;;;1.49;91.17;97220.19;10419630;28;20031;-57
2021/12/29 22:21:53;;;;;;;18.63;9.10;;;;;;;1.49;91.35;97220.19;10419908;28;20060;-57
2021/12/29 22:26:52;;;;;;;14.98;6.90;;;;;;;1.47;91.39;97216.72;10419191;28;20102;-57
2021/12/29 22:31:51;;;;;;;;;;;;;;;1.35;91.46;97210.44;10419638;28;20472;-57
2021/12/29 22:36:52;;;;;;;17.77;10.73;;;;;;;1.39;91.41;97225.91;10419534;28;20443;-57
2021/12/29 22:41:51;;;;;;;19.65;12.25;;;;;;;1.32;91.27;97227.41;10418316;28;20508;-57
2021/12/29 22:46:50;;;;;;;17.38;9.77;;;;;;;1.05;91.54;97180.69;10418893;28;20068;-57
2021/12/29 22:51:50;;;;;;;19.35;10.43;;;;;;;1.27;91.69;97229.00;10419014;28;20028;-57
2021/12/29 22:56:49;;;;;;;17.83;11.15;;;;;;;1.33;91.37;97218.91;10417835;28;20128;-57
2021/12/29 23:01:48;;;;;;;19.33;12.60;;;;;;;1.37;91.36;97227.53;10417739;28;20517;-57
2021/12/29 23:06:47;;;;;;;22.20;14.13;;;;;;;1.39;91.31;97222.44;10419702;28;20485;-57
2021/12/29 23:11:47;;;;;;;24.40;15.27;;;;;;;1.32;91.35;97229.97;10420552;28;20753;-57
2021/12/29 23:16:47;;;;;;;24.65;16.17;;;;;;;1.31;91.07;97228.22;10413544;28;20094;-57